sensor_id;sensor_type;location;lat;lon;timestamp;P1;durP1;ratioP1;P2;durP2;ratioP2
735;SDS011;352;48.626;9.238;2022-07-04T00:01:40;356.27;;;174.80;;
735;SDS011;352;48.626;9.238;2022-07-04T00:04:07;356.00;;;174.97;;
735;SDS011;352;48.626;9.238;2022-07-04T00:06:34;356.93;;;174.03;;
735;SDS011;352;48.626;9.238;2022-07-04T00:09:03;354.50;;;173.30;;
735;SDS011;352;48.626;9.238;2022-07-04T00:11:29;357.43;;;173.30;;
735;SDS011;352;48.626;9.238;2022-07-04T00:13:57;354.50;;;170.40;;
735;SDS011;352;48.626;9.238;2022-07-04T00:16:24;354.90;;;169.97;;
735;SDS011;352;48.626;9.238;2022-07-04T00:18:51;362.67;;;191.77;;
735;SDS011;352;48.626;9.238;2022-07-04T00:21:18;355.60;;;171.20;;
735;SDS011;352;48.626;9.238;2022-07-04T00:23:45;357.17;;;175.43;;
735;SDS011;352;48.626;9.238;2022-07-04T00:26:14;358.77;;;178.97;;
735;SDS011;352;48.626;9.238;2022-07-04T00:28:41;379.37;;;215.30;;
735;SDS011;352;48.626;9.238;2022-07-04T00:31:08;360.97;;;178.10;;
735;SDS011;352;48.626;9.238;2022-07-04T00:33:35;358.23;;;176.30;;
735;SDS011;352;48.626;9.238;2022-07-04T00:36:03;361.07;;;183.40;;
735;SDS011;352;48.626;9.238;2022-07-04T00:38:30;362.40;;;180.67;;
735;SDS011;352;48.626;9.238;2022-07-04T00:40:57;357.43;;;169.50;;
735;SDS011;352;48.626;9.238;2022-07-04T00:43:26;361.70;;;175.30;;
735;SDS011;352;48.626;9.238;2022-07-04T00:45:53;363.40;;;178.13;;
735;SDS011;352;48.626;9.238;2022-07-04T00:48:21;353.97;;;176.73;;
735;SDS011;352;48.626;9.238;2022-07-04T00:50:48;340.07;;;189.37;;
735;SDS011;352;48.626;9.238;2022-07-04T00:53:15;287.93;;;179.20;;
735;SDS011;352;48.626;9.238;2022-07-04T00:55:43;347.80;;;189.60;;
735;SDS011;352;48.626;9.238;2022-07-04T00:58:11;338.90;;;182.43;;
735;SDS011;352;48.626;9.238;2022-07-04T01:00:41;354.50;;;185.87;;
735;SDS011;352;48.626;9.238;2022-07-04T01:03:07;343.83;;;192.40;;
735;SDS011;352;48.626;9.238;2022-07-04T01:05:34;277.70;;;191.13;;
735;SDS011;352;48.626;9.238;2022-07-04T01:08:02;240.33;;;173.50;;
735;SDS011;352;48.626;9.238;2022-07-04T01:10:29;233.17;;;185.00;;
735;SDS011;352;48.626;9.238;2022-07-04T01:12:56;293.60;;;193.07;;
735;SDS011;352;48.626;9.238;2022-07-04T01:15:23;231.57;;;174.93;;
735;SDS011;352;48.626;9.238;2022-07-04T01:17:52;239.10;;;193.17;;
735;SDS011;352;48.626;9.238;2022-07-04T01:20:20;249.03;;;193.53;;
735;SDS011;352;48.626;9.238;2022-07-04T01:22:47;265.07;;;187.87;;
735;SDS011;352;48.626;9.238;2022-07-04T01:25:14;253.77;;;171.23;;
735;SDS011;352;48.626;9.238;2022-07-04T01:27:41;355.27;;;164.00;;
735;SDS011;352;48.626;9.238;2022-07-04T01:30:09;360.40;;;176.50;;
735;SDS011;352;48.626;9.238;2022-07-04T01:32:36;358.77;;;175.40;;
735;SDS011;352;48.626;9.238;2022-07-04T01:35:03;358.93;;;173.27;;
735;SDS011;352;48.626;9.238;2022-07-04T01:37:32;363.80;;;179.07;;
735;SDS011;352;48.626;9.238;2022-07-04T01:39:59;360.17;;;173.53;;
735;SDS011;352;48.626;9.238;2022-07-04T01:42:26;356.53;;;160.60;;
735;SDS011;352;48.626;9.238;2022-07-04T01:44:53;359.87;;;169.90;;
735;SDS011;352;48.626;9.238;2022-07-04T01:47:20;358.57;;;167.47;;
735;SDS011;352;48.626;9.238;2022-07-04T01:49:47;359.37;;;168.47;;
735;SDS011;352;48.626;9.238;2022-07-04T01:52:14;362.93;;;179.23;;
735;SDS011;352;48.626;9.238;2022-07-04T01:54:43;362.10;;;180.17;;
735;SDS011;352;48.626;9.238;2022-07-04T01:57:09;362.27;;;176.83;;
735;SDS011;352;48.626;9.238;2022-07-04T01:59:37;362.87;;;188.13;;
735;SDS011;352;48.626;9.238;2022-07-04T02:02:22;325.83;;;187.63;;
735;SDS011;352;48.626;9.238;2022-07-04T02:04:49;208.57;;;166.07;;
735;SDS011;352;48.626;9.238;2022-07-04T02:07:16;198.37;;;166.30;;
735;SDS011;352;48.626;9.238;2022-07-04T02:09:45;206.20;;;175.53;;
735;SDS011;352;48.626;9.238;2022-07-04T02:12:11;216.87;;;167.90;;
735;SDS011;352;48.626;9.238;2022-07-04T02:14:56;226.97;;;178.60;;
735;SDS011;352;48.626;9.238;2022-07-04T02:17:23;219.80;;;163.23;;
735;SDS011;352;48.626;9.238;2022-07-04T02:19:50;230.80;;;183.87;;
735;SDS011;352;48.626;9.238;2022-07-04T02:22:17;307.07;;;188.50;;
735;SDS011;352;48.626;9.238;2022-07-04T02:24:46;317.97;;;187.53;;
735;SDS011;352;48.626;9.238;2022-07-04T02:27:13;288.97;;;187.43;;
735;SDS011;352;48.626;9.238;2022-07-04T02:29:40;306.97;;;187.33;;
735;SDS011;352;48.626;9.238;2022-07-04T02:32:07;296.43;;;185.97;;
735;SDS011;352;48.626;9.238;2022-07-04T02:34:34;293.53;;;182.50;;
735;SDS011;352;48.626;9.238;2022-07-04T02:37:01;281.60;;;186.13;;
735;SDS011;352;48.626;9.238;2022-07-04T02:39:28;278.93;;;181.87;;
735;SDS011;352;48.626;9.238;2022-07-04T02:41:57;302.27;;;194.83;;
735;SDS011;352;48.626;9.238;2022-07-04T02:44:23;344.73;;;183.90;;
735;SDS011;352;48.626;9.238;2022-07-04T02:46:51;347.53;;;185.90;;
735;SDS011;352;48.626;9.238;2022-07-04T02:49:18;337.77;;;185.73;;
735;SDS011;352;48.626;9.238;2022-07-04T02:51:45;345.57;;;187.87;;
735;SDS011;352;48.626;9.238;2022-07-04T02:54:12;331.47;;;184.20;;
735;SDS011;352;48.626;9.238;2022-07-04T02:56:39;347.03;;;195.50;;
735;SDS011;352;48.626;9.238;2022-07-04T02:59:08;302.73;;;194.90;;
735;SDS011;352;48.626;9.238;2022-07-04T03:01:35;296.30;;;176.27;;
735;SDS011;352;48.626;9.238;2022-07-04T03:04:02;292.10;;;186.33;;
735;SDS011;352;48.626;9.238;2022-07-04T03:06:29;289.60;;;181.37;;
735;SDS011;352;48.626;9.238;2022-07-04T03:08:56;264.23;;;176.87;;
735;SDS011;352;48.626;9.238;2022-07-04T03:11:23;272.73;;;178.07;;
735;SDS011;352;48.626;9.238;2022-07-04T03:13:50;289.57;;;181.87;;
735;SDS011;352;48.626;9.238;2022-07-04T03:16:19;277.03;;;179.40;;
735;SDS011;352;48.626;9.238;2022-07-04T03:18:45;279.77;;;196.83;;
735;SDS011;352;48.626;9.238;2022-07-04T03:21:13;249.00;;;159.57;;
735;SDS011;352;48.626;9.238;2022-07-04T03:23:40;228.87;;;163.47;;
735;SDS011;352;48.626;9.238;2022-07-04T03:26:07;215.57;;;160.17;;
735;SDS011;352;48.626;9.238;2022-07-04T03:28:34;202.77;;;160.20;;
735;SDS011;352;48.626;9.238;2022-07-04T03:31:01;188.63;;;156.07;;
735;SDS011;352;48.626;9.238;2022-07-04T03:33:30;189.40;;;155.37;;
735;SDS011;352;48.626;9.238;2022-07-04T03:35:57;223.13;;;163.30;;
735;SDS011;352;48.626;9.238;2022-07-04T03:38:24;226.47;;;156.33;;
735;SDS011;352;48.626;9.238;2022-07-04T03:40:51;201.63;;;163.20;;
735;SDS011;352;48.626;9.238;2022-07-04T03:43:18;193.10;;;158.03;;
735;SDS011;352;48.626;9.238;2022-07-04T03:45:45;178.77;;;144.20;;
735;SDS011;352;48.626;9.238;2022-07-04T03:48:12;181.77;;;151.23;;
735;SDS011;352;48.626;9.238;2022-07-04T03:50:40;162.07;;;143.20;;
735;SDS011;352;48.626;9.238;2022-07-04T03:53:07;139.83;;;127.40;;
735;SDS011;352;48.626;9.238;2022-07-04T03:55:34;143.93;;;130.80;;
735;SDS011;352;48.626;9.238;2022-07-04T03:58:01;137.20;;;126.07;;
735;SDS011;352;48.626;9.238;2022-07-04T04:00:29;120.87;;;111.83;;
735;SDS011;352;48.626;9.238;2022-07-04T04:02:56;113.37;;;104.77;;
735;SDS011;352;48.626;9.238;2022-07-04T04:05:23;113.87;;;105.10;;
735;SDS011;352;48.626;9.238;2022-07-04T04:07:57;104.83;;;97.00;;
735;SDS011;352;48.626;9.238;2022-07-04T04:10:25;101.70;;;94.50;;
735;SDS011;352;48.626;9.238;2022-07-04T04:12:52;111.40;;;103.43;;
735;SDS011;352;48.626;9.238;2022-07-04T04:15:20;102.13;;;94.80;;
735;SDS011;352;48.626;9.238;2022-07-04T04:17:47;111.33;;;103.57;;
735;SDS011;352;48.626;9.238;2022-07-04T04:20:14;107.63;;;99.60;;
735;SDS011;352;48.626;9.238;2022-07-04T04:22:41;103.60;;;96.00;;
735;SDS011;352;48.626;9.238;2022-07-04T04:25:10;108.17;;;100.60;;
735;SDS011;352;48.626;9.238;2022-07-04T04:27:36;105.97;;;98.27;;
735;SDS011;352;48.626;9.238;2022-07-04T04:30:04;106.13;;;98.30;;
735;SDS011;352;48.626;9.238;2022-07-04T04:32:31;120.67;;;111.20;;
735;SDS011;352;48.626;9.238;2022-07-04T04:34:58;130.20;;;119.30;;
735;SDS011;352;48.626;9.238;2022-07-04T04:37:25;146.20;;;132.90;;
735;SDS011;352;48.626;9.238;2022-07-04T04:39:52;155.23;;;139.50;;
735;SDS011;352;48.626;9.238;2022-07-04T04:42:21;178.23;;;148.10;;
735;SDS011;352;48.626;9.238;2022-07-04T04:44:47;189.47;;;145.03;;
735;SDS011;352;48.626;9.238;2022-07-04T04:47:14;172.53;;;145.30;;
735;SDS011;352;48.626;9.238;2022-07-04T04:49:41;157.57;;;137.53;;
735;SDS011;352;48.626;9.238;2022-07-04T04:52:08;171.47;;;144.43;;
735;SDS011;352;48.626;9.238;2022-07-04T04:54:36;161.67;;;139.27;;
735;SDS011;352;48.626;9.238;2022-07-04T04:57:03;149.30;;;134.10;;
735;SDS011;352;48.626;9.238;2022-07-04T04:59:32;141.53;;;127.70;;
735;SDS011;352;48.626;9.238;2022-07-04T05:02:00;141.97;;;128.73;;
735;SDS011;352;48.626;9.238;2022-07-04T05:04:27;147.50;;;133.07;;
735;SDS011;352;48.626;9.238;2022-07-04T05:06:54;141.53;;;129.33;;
735;SDS011;352;48.626;9.238;2022-07-04T05:09:22;146.63;;;133.90;;
735;SDS011;352;48.626;9.238;2022-07-04T05:11:49;142.97;;;130.90;;
735;SDS011;352;48.626;9.238;2022-07-04T05:14:16;141.50;;;129.33;;
735;SDS011;352;48.626;9.238;2022-07-04T05:16:44;133.37;;;122.23;;
735;SDS011;352;48.626;9.238;2022-07-04T05:19:11;139.43;;;127.93;;
735;SDS011;352;48.626;9.238;2022-07-04T05:21:38;132.30;;;120.97;;
735;SDS011;352;48.626;9.238;2022-07-04T05:24:05;143.37;;;130.03;;
735;SDS011;352;48.626;9.238;2022-07-04T05:26:33;140.67;;;129.17;;
735;SDS011;352;48.626;9.238;2022-07-04T05:29:00;138.33;;;126.90;;
735;SDS011;352;48.626;9.238;2022-07-04T05:31:27;139.13;;;127.77;;
735;SDS011;352;48.626;9.238;2022-07-04T05:33:55;141.73;;;129.43;;
735;SDS011;352;48.626;9.238;2022-07-04T05:36:24;153.43;;;139.63;;
735;SDS011;352;48.626;9.238;2022-07-04T05:38:51;160.63;;;149.40;;
735;SDS011;352;48.626;9.238;2022-07-04T05:41:18;149.40;;;135.83;;
735;SDS011;352;48.626;9.238;2022-07-04T05:43:45;141.07;;;129.63;;
735;SDS011;352;48.626;9.238;2022-07-04T05:46:12;144.20;;;131.73;;
735;SDS011;352;48.626;9.238;2022-07-04T05:48:39;162.13;;;147.73;;
735;SDS011;352;48.626;9.238;2022-07-04T05:51:08;150.40;;;137.57;;
735;SDS011;352;48.626;9.238;2022-07-04T05:53:34;147.60;;;134.10;;
735;SDS011;352;48.626;9.238;2022-07-04T05:56:02;143.70;;;131.07;;
735;SDS011;352;48.626;9.238;2022-07-04T05:58:29;154.17;;;140.63;;
735;SDS011;352;48.626;9.238;2022-07-04T06:00:56;151.60;;;138.37;;
735;SDS011;352;48.626;9.238;2022-07-04T06:03:23;160.80;;;146.37;;
735;SDS011;352;48.626;9.238;2022-07-04T06:05:50;163.63;;;150.00;;
735;SDS011;352;48.626;9.238;2022-07-04T06:08:19;161.47;;;147.80;;
735;SDS011;352;48.626;9.238;2022-07-04T06:10:46;169.63;;;154.53;;
735;SDS011;352;48.626;9.238;2022-07-04T06:13:13;168.50;;;154.20;;
735;SDS011;352;48.626;9.238;2022-07-04T06:15:40;167.10;;;152.33;;
735;SDS011;352;48.626;9.238;2022-07-04T06:18:07;155.00;;;142.63;;
735;SDS011;352;48.626;9.238;2022-07-04T06:20:34;171.87;;;157.37;;
735;SDS011;352;48.626;9.238;2022-07-04T06:23:01;173.87;;;158.87;;
735;SDS011;352;48.626;9.238;2022-07-04T06:25:30;185.50;;;169.90;;
735;SDS011;352;48.626;9.238;2022-07-04T06:27:56;176.17;;;161.03;;
735;SDS011;352;48.626;9.238;2022-07-04T06:30:24;160.87;;;148.47;;
735;SDS011;352;48.626;9.238;2022-07-04T06:32:51;176.83;;;161.27;;
735;SDS011;352;48.626;9.238;2022-07-04T06:35:19;174.23;;;158.37;;
735;SDS011;352;48.626;9.238;2022-07-04T06:38:05;179.57;;;163.53;;
735;SDS011;352;48.626;9.238;2022-07-04T06:40:34;175.20;;;160.83;;
735;SDS011;352;48.626;9.238;2022-07-04T06:43:01;158.03;;;145.50;;
735;SDS011;352;48.626;9.238;2022-07-04T06:45:28;173.80;;;159.33;;
735;SDS011;352;48.626;9.238;2022-07-04T06:47:55;176.67;;;162.60;;
735;SDS011;352;48.626;9.238;2022-07-04T06:50:22;181.33;;;165.70;;
735;SDS011;352;48.626;9.238;2022-07-04T06:52:50;233.83;;;218.67;;
735;SDS011;352;48.626;9.238;2022-07-04T06:55:17;180.00;;;164.63;;
735;SDS011;352;48.626;9.238;2022-07-04T06:57:46;185.47;;;170.30;;
735;SDS011;352;48.626;9.238;2022-07-04T07:00:13;175.33;;;160.07;;
735;SDS011;352;48.626;9.238;2022-07-04T07:02:40;175.27;;;160.47;;
735;SDS011;352;48.626;9.238;2022-07-04T07:05:07;175.93;;;162.13;;
735;SDS011;352;48.626;9.238;2022-07-04T07:07:34;176.60;;;162.10;;
735;SDS011;352;48.626;9.238;2022-07-04T07:10:01;169.73;;;156.03;;
735;SDS011;352;48.626;9.238;2022-07-04T07:12:31;178.77;;;164.23;;
735;SDS011;352;48.626;9.238;2022-07-04T07:15:00;186.23;;;171.13;;
735;SDS011;352;48.626;9.238;2022-07-04T07:17:28;187.50;;;172.20;;
735;SDS011;352;48.626;9.238;2022-07-04T07:19:55;191.03;;;175.00;;
735;SDS011;352;48.626;9.238;2022-07-04T07:22:22;189.03;;;172.87;;
735;SDS011;352;48.626;9.238;2022-07-04T07:24:49;188.93;;;174.33;;
735;SDS011;352;48.626;9.238;2022-07-04T07:27:16;192.67;;;175.57;;
735;SDS011;352;48.626;9.238;2022-07-04T07:29:43;202.30;;;185.07;;
735;SDS011;352;48.626;9.238;2022-07-04T07:32:11;195.33;;;177.40;;
735;SDS011;352;48.626;9.238;2022-07-04T07:34:38;206.20;;;188.70;;
735;SDS011;352;48.626;9.238;2022-07-04T07:37:06;203.17;;;184.13;;
735;SDS011;352;48.626;9.238;2022-07-04T07:39:33;202.40;;;184.80;;
735;SDS011;352;48.626;9.238;2022-07-04T07:42:00;200.50;;;182.60;;
735;SDS011;352;48.626;9.238;2022-07-04T07:44:27;202.20;;;184.70;;
735;SDS011;352;48.626;9.238;2022-07-04T07:46:54;220.57;;;201.20;;
735;SDS011;352;48.626;9.238;2022-07-04T07:49:23;229.03;;;208.23;;
735;SDS011;352;48.626;9.238;2022-07-04T07:51:50;241.30;;;220.60;;
735;SDS011;352;48.626;9.238;2022-07-04T07:54:17;231.87;;;210.93;;
735;SDS011;352;48.626;9.238;2022-07-04T07:56:44;221.73;;;201.67;;
735;SDS011;352;48.626;9.238;2022-07-04T07:59:11;232.40;;;209.43;;
735;SDS011;352;48.626;9.238;2022-07-04T08:01:38;245.50;;;223.20;;
735;SDS011;352;48.626;9.238;2022-07-04T08:04:05;228.07;;;208.43;;
735;SDS011;352;48.626;9.238;2022-07-04T08:07:03;242.87;;;222.30;;
735;SDS011;352;48.626;9.238;2022-07-04T08:09:31;241.60;;;218.23;;
735;SDS011;352;48.626;9.238;2022-07-04T08:11:59;238.43;;;218.00;;
735;SDS011;352;48.626;9.238;2022-07-04T08:14:26;250.13;;;228.87;;
735;SDS011;352;48.626;9.238;2022-07-04T08:16:54;242.57;;;219.83;;
735;SDS011;352;48.626;9.238;2022-07-04T08:19:22;255.57;;;231.27;;
735;SDS011;352;48.626;9.238;2022-07-04T08:21:50;250.17;;;227.13;;
735;SDS011;352;48.626;9.238;2022-07-04T08:24:18;248.33;;;224.13;;
735;SDS011;352;48.626;9.238;2022-07-04T08:26:45;280.30;;;253.57;;
735;SDS011;352;48.626;9.238;2022-07-04T08:29:13;260.87;;;235.97;;
735;SDS011;352;48.626;9.238;2022-07-04T08:31:40;259.73;;;236.83;;
735;SDS011;352;48.626;9.238;2022-07-04T08:34:08;246.47;;;224.97;;
735;SDS011;352;48.626;9.238;2022-07-04T08:36:35;253.67;;;231.73;;
735;SDS011;352;48.626;9.238;2022-07-04T08:39:02;279.33;;;256.00;;
735;SDS011;352;48.626;9.238;2022-07-04T08:41:34;250.40;;;226.90;;
735;SDS011;352;48.626;9.238;2022-07-04T08:44:04;265.83;;;243.73;;
735;SDS011;352;48.626;9.238;2022-07-04T08:46:35;269.33;;;246.50;;
735;SDS011;352;48.626;9.238;2022-07-04T08:49:05;280.03;;;253.40;;
735;SDS011;352;48.626;9.238;2022-07-04T08:51:38;276.43;;;251.33;;
735;SDS011;352;48.626;9.238;2022-07-04T08:54:18;266.27;;;239.20;;
735;SDS011;352;48.626;9.238;2022-07-04T08:57:06;264.47;;;238.87;;
735;SDS011;352;48.626;9.238;2022-07-04T08:59:51;285.93;;;256.83;;
735;SDS011;352;48.626;9.238;2022-07-04T09:02:20;275.97;;;248.17;;
735;SDS011;352;48.626;9.238;2022-07-04T09:04:48;283.30;;;255.57;;
735;SDS011;352;48.626;9.238;2022-07-04T09:07:15;290.87;;;261.50;;
735;SDS011;352;48.626;9.238;2022-07-04T09:09:43;278.87;;;248.77;;
735;SDS011;352;48.626;9.238;2022-07-04T09:12:12;279.93;;;251.80;;
735;SDS011;352;48.626;9.238;2022-07-04T09:14:39;272.67;;;237.30;;
735;SDS011;352;48.626;9.238;2022-07-04T09:17:06;295.23;;;245.97;;
735;SDS011;352;48.626;9.238;2022-07-04T09:19:33;328.57;;;256.57;;
735;SDS011;352;48.626;9.238;2022-07-04T09:22:04;321.37;;;266.20;;
735;SDS011;352;48.626;9.238;2022-07-04T09:24:45;354.10;;;295.37;;
735;SDS011;352;48.626;9.238;2022-07-04T09:27:15;359.03;;;267.53;;
735;SDS011;352;48.626;9.238;2022-07-04T09:29:55;370.13;;;278.10;;
735;SDS011;352;48.626;9.238;2022-07-04T09:32:35;386.20;;;278.63;;
735;SDS011;352;48.626;9.238;2022-07-04T09:35:04;384.93;;;272.27;;
735;SDS011;352;48.626;9.238;2022-07-04T09:37:35;388.50;;;277.63;;
735;SDS011;352;48.626;9.238;2022-07-04T09:40:04;393.00;;;282.93;;
735;SDS011;352;48.626;9.238;2022-07-04T09:42:41;393.80;;;295.20;;
735;SDS011;352;48.626;9.238;2022-07-04T09:45:09;395.57;;;294.90;;
735;SDS011;352;48.626;9.238;2022-07-04T09:47:37;393.20;;;299.00;;
735;SDS011;352;48.626;9.238;2022-07-04T09:50:05;398.47;;;324.77;;
735;SDS011;352;48.626;9.238;2022-07-04T09:52:43;402.63;;;338.00;;
735;SDS011;352;48.626;9.238;2022-07-04T09:55:11;387.20;;;312.07;;
735;SDS011;352;48.626;9.238;2022-07-04T09:57:44;404.37;;;344.57;;
735;SDS011;352;48.626;9.238;2022-07-04T10:00:19;404.13;;;354.00;;
735;SDS011;352;48.626;9.238;2022-07-04T10:02:46;411.03;;;366.60;;
735;SDS011;352;48.626;9.238;2022-07-04T10:05:18;401.67;;;356.87;;
735;SDS011;352;48.626;9.238;2022-07-04T10:07:46;404.90;;;360.07;;
735;SDS011;352;48.626;9.238;2022-07-04T10:10:20;425.03;;;380.07;;
735;SDS011;352;48.626;9.238;2022-07-04T10:12:50;418.00;;;373.27;;
735;SDS011;352;48.626;9.238;2022-07-04T10:15:18;418.37;;;374.10;;
735;SDS011;352;48.626;9.238;2022-07-04T10:17:45;427.77;;;383.60;;
735;SDS011;352;48.626;9.238;2022-07-04T10:20:13;445.37;;;400.47;;
735;SDS011;352;48.626;9.238;2022-07-04T10:22:40;448.50;;;403.73;;
735;SDS011;352;48.626;9.238;2022-07-04T10:25:07;491.47;;;445.53;;
735;SDS011;352;48.626;9.238;2022-07-04T10:27:36;472.57;;;427.07;;
735;SDS011;352;48.626;9.238;2022-07-04T10:30:06;475.90;;;429.50;;
735;SDS011;352;48.626;9.238;2022-07-04T10:32:35;496.53;;;450.57;;
735;SDS011;352;48.626;9.238;2022-07-04T10:35:04;493.77;;;448.20;;
735;SDS011;352;48.626;9.238;2022-07-04T10:40:44;504.67;;;458.83;;
735;SDS011;352;48.626;9.238;2022-07-04T10:46:42;501.60;;;456.23;;
735;SDS011;352;48.626;9.238;2022-07-04T10:49:17;505.00;;;459.23;;
735;SDS011;352;48.626;9.238;2022-07-04T10:51:46;498.33;;;453.00;;
735;SDS011;352;48.626;9.238;2022-07-04T10:54:14;491.67;;;447.07;;
735;SDS011;352;48.626;9.238;2022-07-04T10:56:45;470.97;;;426.57;;
735;SDS011;352;48.626;9.238;2022-07-04T10:59:15;466.43;;;422.00;;
735;SDS011;352;48.626;9.238;2022-07-04T11:01:51;483.10;;;438.07;;
735;SDS011;352;48.626;9.238;2022-07-04T11:07:20;471.47;;;426.93;;
735;SDS011;352;48.626;9.238;2022-07-04T11:13:07;449.63;;;405.67;;
735;SDS011;352;48.626;9.238;2022-07-04T11:18:37;443.60;;;400.00;;
735;SDS011;352;48.626;9.238;2022-07-04T11:21:21;434.43;;;390.77;;
735;SDS011;352;48.626;9.238;2022-07-04T11:23:49;412.77;;;369.63;;
735;SDS011;352;48.626;9.238;2022-07-04T11:26:18;408.33;;;364.83;;
735;SDS011;352;48.626;9.238;2022-07-04T11:28:45;437.23;;;392.43;;
735;SDS011;352;48.626;9.238;2022-07-04T11:31:12;396.30;;;353.40;;
735;SDS011;352;48.626;9.238;2022-07-04T11:33:42;389.27;;;346.13;;
735;SDS011;352;48.626;9.238;2022-07-04T11:36:10;415.27;;;371.80;;
735;SDS011;352;48.626;9.238;2022-07-04T11:38:43;413.97;;;370.33;;
735;SDS011;352;48.626;9.238;2022-07-04T11:41:10;422.27;;;378.63;;
735;SDS011;352;48.626;9.238;2022-07-04T11:43:51;401.80;;;358.83;;
735;SDS011;352;48.626;9.238;2022-07-04T11:46:36;397.33;;;354.40;;
735;SDS011;352;48.626;9.238;2022-07-04T11:49:08;403.87;;;360.37;;
735;SDS011;352;48.626;9.238;2022-07-04T11:51:40;410.33;;;366.87;;
735;SDS011;352;48.626;9.238;2022-07-04T11:54:08;400.40;;;357.20;;
735;SDS011;352;48.626;9.238;2022-07-04T11:56:35;390.80;;;347.97;;
735;SDS011;352;48.626;9.238;2022-07-04T11:59:08;398.87;;;356.13;;
735;SDS011;352;48.626;9.238;2022-07-04T12:01:37;414.70;;;371.33;;
735;SDS011;352;48.626;9.238;2022-07-04T12:04:12;405.00;;;361.63;;
735;SDS011;352;48.626;9.238;2022-07-04T12:06:40;391.63;;;348.67;;
735;SDS011;352;48.626;9.238;2022-07-04T12:09:07;392.57;;;349.63;;
735;SDS011;352;48.626;9.238;2022-07-04T12:11:49;403.60;;;360.03;;
735;SDS011;352;48.626;9.238;2022-07-04T12:14:17;381.90;;;331.67;;
735;SDS011;352;48.626;9.238;2022-07-04T12:16:44;393.83;;;350.73;;
735;SDS011;352;48.626;9.238;2022-07-04T12:19:13;402.47;;;355.70;;
735;SDS011;352;48.626;9.238;2022-07-04T12:21:41;396.20;;;351.93;;
735;SDS011;352;48.626;9.238;2022-07-04T12:24:09;397.00;;;353.37;;
735;SDS011;352;48.626;9.238;2022-07-04T12:26:44;389.47;;;344.63;;
735;SDS011;352;48.626;9.238;2022-07-04T12:29:19;387.33;;;342.77;;
735;SDS011;352;48.626;9.238;2022-07-04T12:31:50;398.93;;;356.07;;
735;SDS011;352;48.626;9.238;2022-07-04T12:34:19;389.67;;;346.87;;
735;SDS011;352;48.626;9.238;2022-07-04T12:36:49;381.90;;;339.00;;
735;SDS011;352;48.626;9.238;2022-07-04T12:39:30;380.03;;;331.17;;
735;SDS011;352;48.626;9.238;2022-07-04T12:42:04;378.30;;;334.47;;
735;SDS011;352;48.626;9.238;2022-07-04T12:44:32;382.53;;;338.80;;
735;SDS011;352;48.626;9.238;2022-07-04T12:46:59;379.00;;;325.83;;
735;SDS011;352;48.626;9.238;2022-07-04T12:49:28;382.53;;;334.30;;
735;SDS011;352;48.626;9.238;2022-07-04T12:52:03;381.73;;;331.50;;
735;SDS011;352;48.626;9.238;2022-07-04T12:54:31;385.80;;;329.60;;
735;SDS011;352;48.626;9.238;2022-07-04T12:57:05;384.77;;;339.37;;
735;SDS011;352;48.626;9.238;2022-07-04T12:59:32;379.90;;;322.33;;
735;SDS011;352;48.626;9.238;2022-07-04T13:01:59;384.73;;;310.90;;
735;SDS011;352;48.626;9.238;2022-07-04T13:04:28;383.93;;;329.87;;
735;SDS011;352;48.626;9.238;2022-07-04T13:06:56;383.63;;;328.30;;
735;SDS011;352;48.626;9.238;2022-07-04T13:09:24;378.03;;;313.73;;
735;SDS011;352;48.626;9.238;2022-07-04T13:11:51;382.83;;;327.87;;
735;SDS011;352;48.626;9.238;2022-07-04T13:14:36;380.70;;;322.13;;
735;SDS011;352;48.626;9.238;2022-07-04T13:17:03;384.83;;;333.53;;
735;SDS011;352;48.626;9.238;2022-07-04T13:19:31;378.93;;;309.67;;
735;SDS011;352;48.626;9.238;2022-07-04T13:21:58;395.37;;;352.03;;
735;SDS011;352;48.626;9.238;2022-07-04T13:24:25;382.93;;;325.10;;
735;SDS011;352;48.626;9.238;2022-07-04T13:26:52;383.90;;;325.63;;
735;SDS011;352;48.626;9.238;2022-07-04T13:29:19;383.23;;;329.23;;
735;SDS011;352;48.626;9.238;2022-07-04T13:31:47;382.57;;;323.97;;
735;SDS011;352;48.626;9.238;2022-07-04T13:34:14;376.33;;;308.90;;
735;SDS011;352;48.626;9.238;2022-07-04T13:36:43;380.40;;;326.87;;
735;SDS011;352;48.626;9.238;2022-07-04T13:39:10;382.13;;;321.97;;
735;SDS011;352;48.626;9.238;2022-07-04T13:41:37;383.17;;;330.57;;
735;SDS011;352;48.626;9.238;2022-07-04T13:44:05;384.20;;;325.43;;
735;SDS011;352;48.626;9.238;2022-07-04T13:46:33;389.97;;;346.27;;
735;SDS011;352;48.626;9.238;2022-07-04T13:49:01;384.43;;;310.30;;
735;SDS011;352;48.626;9.238;2022-07-04T13:51:28;382.70;;;315.63;;
735;SDS011;352;48.626;9.238;2022-07-04T13:53:56;386.47;;;324.87;;
735;SDS011;352;48.626;9.238;2022-07-04T13:56:23;386.10;;;328.47;;
735;SDS011;352;48.626;9.238;2022-07-04T13:58:50;397.87;;;353.03;;
735;SDS011;352;48.626;9.238;2022-07-04T14:01:18;389.07;;;326.23;;
735;SDS011;352;48.626;9.238;2022-07-04T14:03:45;383.77;;;313.77;;
735;SDS011;352;48.626;9.238;2022-07-04T14:06:12;388.43;;;300.00;;
735;SDS011;352;48.626;9.238;2022-07-04T14:08:39;387.93;;;330.70;;
735;SDS011;352;48.626;9.238;2022-07-04T14:11:08;379.37;;;315.87;;
735;SDS011;352;48.626;9.238;2022-07-04T14:13:35;380.97;;;321.73;;
735;SDS011;352;48.626;9.238;2022-07-04T14:16:03;380.67;;;318.17;;
735;SDS011;352;48.626;9.238;2022-07-04T14:18:31;376.97;;;301.53;;
735;SDS011;352;48.626;9.238;2022-07-04T14:20:58;382.47;;;314.43;;
735;SDS011;352;48.626;9.238;2022-07-04T14:23:25;382.73;;;325.60;;
735;SDS011;352;48.626;9.238;2022-07-04T14:26:11;380.73;;;320.60;;
735;SDS011;352;48.626;9.238;2022-07-04T14:28:39;385.40;;;330.13;;
735;SDS011;352;48.626;9.238;2022-07-04T14:31:06;385.63;;;338.40;;
735;SDS011;352;48.626;9.238;2022-07-04T14:33:33;381.57;;;328.93;;
735;SDS011;352;48.626;9.238;2022-07-04T14:36:00;390.87;;;348.00;;
735;SDS011;352;48.626;9.238;2022-07-04T14:38:27;382.23;;;325.37;;
735;SDS011;352;48.626;9.238;2022-07-04T14:40:54;383.33;;;324.63;;
735;SDS011;352;48.626;9.238;2022-07-04T14:43:22;384.03;;;331.57;;
735;SDS011;352;48.626;9.238;2022-07-04T14:45:49;382.37;;;318.43;;
735;SDS011;352;48.626;9.238;2022-07-04T14:48:16;381.27;;;323.87;;
735;SDS011;352;48.626;9.238;2022-07-04T14:50:43;381.00;;;312.87;;
735;SDS011;352;48.626;9.238;2022-07-04T14:53:12;397.13;;;352.13;;
735;SDS011;352;48.626;9.238;2022-07-04T14:55:39;388.77;;;331.83;;
735;SDS011;352;48.626;9.238;2022-07-04T14:58:06;385.53;;;325.17;;
735;SDS011;352;48.626;9.238;2022-07-04T15:00:34;382.83;;;316.60;;
735;SDS011;352;48.626;9.238;2022-07-04T15:03:01;388.13;;;326.87;;
735;SDS011;352;48.626;9.238;2022-07-04T15:05:28;386.30;;;315.53;;
735;SDS011;352;48.626;9.238;2022-07-04T15:07:56;384.77;;;318.70;;
735;SDS011;352;48.626;9.238;2022-07-04T15:10:23;384.50;;;316.17;;
735;SDS011;352;48.626;9.238;2022-07-04T15:12:50;386.50;;;319.77;;